Zhengzhou, Henan

10:30 PM CST on September 03, 2015 (GMT +0800)
Xinzheng | | Change Station
CLOSE
Current Station
Airport
Location: Zhengzhou,
Elevation: 492 ft
Nearby Weather Stations

Elev 492 ft 34.52 °N, 113.84 °E | Updated 30 minutes ago

Clear
Clear
72 °F
Feels Like 72 °F
N
2
Wind Variable Wind from SSE

Today
High -- | Low -- °F
--% Chance of Precip.
Yesterday
High -- | Low -- °F
Precip. -- in
5:59 AM 6:50 PM
Waning Gibbous, 70% visible
Pressure 29.95 in
Visibility 4.3 miles
Clouds
Dew Point 66 °F
Humidity 83%
Rainfall 0.00 in
Snow Depth Not available.
UV Not available.
Pollen Not available.
Air Quality Not available.
Flu Activity Not available.
METAR ZHCC 031400Z 15001MPS 7000 NSC 22/19 Q1014 NOSIG
Pressure 29.95 in
Visibility 4.3 miles
Clouds
Dew Point 66 °F
Humidity 83%
Rainfall 0.00 in
Snow Depth Not available.
UV Not available.
Pollen Not available.
Air Quality Not available.
Flu Activity Not available.
METAR ZHCC 031400Z 15001MPS 7000 NSC 22/19 Q1014 NOSIG

10-Day Weather Forecast

×

Almanac

Astronomy

Sep. 03, 2015 Rise Set
Actual Time
Civil Twilight
Nautical Twilight
Astronomical Twilight
Moon
Length of Visible Light
Length of Day
Tomorrow will be .
, % of the Moon is Illuminated

Today's Extremes

Country Highs Country Lows

Community

WunderPhotos

Upload Photos

1,851,960 photos uploaded!

WunderBlogs® & News

Nearby

Air Quality

  Air Quality AQ Index Pollutant
Not available.

Snow Depth

Station Depth Elevation

Earthquake Activity

City Distance Mag. Time & Date
Minimum magnitude displayed is 2.5.

Coastal Water Temperatures

Place Temperature

Stations

Nearby Weather Stations

Station Location Temp. Windchill Dew Point Humidity Wind Precip. Elev Updated Type